Terminal Aerodrome Forecast
Issued by NWS

Home | Current Version | Previous Version | Text Only | Print | Product List | Glossary On
Versions: 1 2 3 4 5 6 7 8 9 10 11 12 13 14 15 16 17 18 19 20 21 22 23 24 25
000
FTUS45 KBOU 201121
TAFAPA
TAF
KAPA 201121Z 2012/2112 14010KT P6SM FEW100
     FM201400 18008KT P6SM FEW220
     FM201700 18014KT P6SM SCT220
     FM202000 18015G25KT P6SM FEW110 SCT220
     FM210200 18012KT P6SM FEW130 SCT220
     FM210600 21008KT P6SM FEW220=

USA.gov is the U.S. government's official web portal to all federal, state and local government web resources and services.